Portada
METAR-TAF:

METAR-TAF

Aeropuertos :

Resia Pass, Italia

latitud: 46-50N, longitud: 010-30E, altitud: 1800 m

Observación

El informe se hizo hace 28 minutos, a las 06:55 UTC
Viento 7 kt del sur-suroeste
Temperatura 9°C
Humedad 100%
Presión 1008 hPa
Visibilidad: 6000 m
Cielo nuboso a una altura de 1000 ft
Nubes dispersas a una altura de 2000 ft
lluvia ligera

METAR: LIVE 070655Z 20007KT 6000 -RA BKN010 SCT020 09/09 Q1008 RMK OVC VIS MIN 6000

Hora: 09:23 (07:23 UTC)


TAF: falta

Observaciones y pronósticos meteorológicos de más de 4000 aeropuertos (mensajes METAR y TAF).

Los puntos amarillos y rojos representan las estaciones disponibles.

Ponga el ratón en el punto deseado para ver el nombre de la estación.

Haga clic para ver las observaciones y los pronósticos meteorológicos.

Para cambiar el mapa : haga clic en los botones verdes con una cruz de color negro para hacer un zoom, en el botón verde con un guión para alejar o en las flechas verdes para mapas adyacentes.


METAR-TAF: